sensor_id;sensor_type;location;lat;lon;timestamp;pressure;altitude;pressure_sealevel;temperature;humidity
32033;BME280;31720;52.638;9.216;2023-09-19T00:02:13;100250.59;;;16.20;100.00
32033;BME280;31720;52.638;9.216;2023-09-19T00:05:15;100242.63;;;16.20;100.00
32033;BME280;31720;52.638;9.216;2023-09-19T00:08:16;100248.22;;;16.17;100.00
32033;BME280;31720;52.638;9.216;2023-09-19T00:11:23;100242.91;;;16.17;100.00
32033;BME280;31720;52.638;9.216;2023-09-19T00:14:26;100241.94;;;16.18;100.00
32033;BME280;31720;52.638;9.216;2023-09-19T00:17:27;100240.72;;;16.22;100.00
32033;BME280;31720;52.638;9.216;2023-09-19T00:20:30;100241.81;;;16.19;100.00
32033;BME280;31720;52.638;9.216;2023-09-19T00:23:32;100245.19;;;16.21;100.00
32033;BME280;31720;52.638;9.216;2023-09-19T00:26:34;100242.78;;;16.18;100.00
32033;BME280;31720;52.638;9.216;2023-09-19T00:29:36;100258.94;;;16.15;100.00
32033;BME280;31720;52.638;9.216;2023-09-19T00:32:37;100263.09;;;16.08;100.00
32033;BME280;31720;52.638;9.216;2023-09-19T00:35:46;100263.66;;;16.12;100.00
32033;BME280;31720;52.638;9.216;2023-09-19T00:38:48;100283.19;;;16.11;100.00
32033;BME280;31720;52.638;9.216;2023-09-19T00:41:51;100276.78;;;16.13;100.00
32033;BME280;31720;52.638;9.216;2023-09-19T00:44:52;100287.41;;;16.13;100.00
32033;BME280;31720;52.638;9.216;2023-09-19T00:47:54;100279.44;;;16.13;100.00
32033;BME280;31720;52.638;9.216;2023-09-19T00:50:57;100285.69;;;16.12;100.00
32033;BME280;31720;52.638;9.216;2023-09-19T00:54:00;100284.75;;;16.13;100.00
32033;BME280;31720;52.638;9.216;2023-09-19T00:57:04;100293.78;;;16.11;100.00
32033;BME280;31720;52.638;9.216;2023-09-19T01:00:07;100289.06;;;16.14;100.00
32033;BME280;31720;52.638;9.216;2023-09-19T01:03:12;100298.94;;;16.12;100.00
32033;BME280;31720;52.638;9.216;2023-09-19T01:06:14;100305.38;;;16.10;100.00
32033;BME280;31720;52.638;9.216;2023-09-19T01:09:16;100306.44;;;16.07;100.00
32033;BME280;31720;52.638;9.216;2023-09-19T01:12:24;100310.91;;;16.07;100.00
32033;BME280;31720;52.638;9.216;2023-09-19T01:15:38;100308.53;;;16.04;100.00
32033;BME280;31720;52.638;9.216;2023-09-19T01:18:47;100310.31;;;16.03;100.00
32033;BME280;31720;52.638;9.216;2023-09-19T01:21:57;100313.25;;;16.00;100.00
32033;BME280;31720;52.638;9.216;2023-09-19T01:25:33;100325.06;;;15.96;100.00
32033;BME280;31720;52.638;9.216;2023-09-19T01:28:48;100320.59;;;15.96;100.00
32033;BME280;31720;52.638;9.216;2023-09-19T01:31:57;100326.50;;;16.00;100.00
32033;BME280;31720;52.638;9.216;2023-09-19T01:35:01;100332.63;;;16.01;100.00
32033;BME280;31720;52.638;9.216;2023-09-19T01:38:05;100342.41;;;16.00;100.00
32033;BME280;31720;52.638;9.216;2023-09-19T01:41:12;100336.38;;;15.98;100.00
32033;BME280;31720;52.638;9.216;2023-09-19T01:44:26;100333.25;;;15.93;100.00
32033;BME280;31720;52.638;9.216;2023-09-19T01:47:34;100330.28;;;15.86;100.00
32033;BME280;31720;52.638;9.216;2023-09-19T01:50:42;100339.66;;;15.90;100.00
32033;BME280;31720;52.638;9.216;2023-09-19T01:53:51;100348.84;;;15.86;100.00
32033;BME280;31720;52.638;9.216;2023-09-19T01:57:00;100340.88;;;15.86;100.00
32033;BME280;31720;52.638;9.216;2023-09-19T02:00:07;100348.63;;;15.78;100.00
32033;BME280;31720;52.638;9.216;2023-09-19T02:03:11;100346.19;;;15.86;100.00
32033;BME280;31720;52.638;9.216;2023-09-19T02:06:14;100354.00;;;15.88;100.00
32033;BME280;31720;52.638;9.216;2023-09-19T02:09:16;100362.09;;;15.86;100.00
32033;BME280;31720;52.638;9.216;2023-09-19T02:12:17;100365.22;;;15.80;100.00
32033;BME280;31720;52.638;9.216;2023-09-19T02:15:18;100358.69;;;15.84;100.00
32033;BME280;31720;52.638;9.216;2023-09-19T02:18:21;100366.16;;;15.90;100.00
32033;BME280;31720;52.638;9.216;2023-09-19T02:21:23;100365.44;;;15.88;100.00
32033;BME280;31720;52.638;9.216;2023-09-19T02:24:25;100360.66;;;15.82;100.00
32033;BME280;31720;52.638;9.216;2023-09-19T02:27:27;100371.72;;;15.87;100.00
32033;BME280;31720;52.638;9.216;2023-09-19T02:30:28;100380.63;;;15.86;100.00
32033;BME280;31720;52.638;9.216;2023-09-19T02:33:31;100384.13;;;15.87;100.00
32033;BME280;31720;52.638;9.216;2023-09-19T02:36:32;100387.00;;;15.84;100.00
32033;BME280;31720;52.638;9.216;2023-09-19T02:39:34;100382.34;;;15.76;100.00
32033;BME280;31720;52.638;9.216;2023-09-19T02:42:36;100396.91;;;15.70;100.00
32033;BME280;31720;52.638;9.216;2023-09-19T02:45:37;100388.41;;;15.67;100.00
32033;BME280;31720;52.638;9.216;2023-09-19T02:48:40;100395.97;;;15.71;100.00
32033;BME280;31720;52.638;9.216;2023-09-19T02:51:42;100396.44;;;15.65;100.00
32033;BME280;31720;52.638;9.216;2023-09-19T02:54:43;100397.53;;;15.63;100.00
32033;BME280;31720;52.638;9.216;2023-09-19T02:57:46;100394.88;;;15.63;100.00
32033;BME280;31720;52.638;9.216;2023-09-19T03:00:47;100389.22;;;15.67;100.00
32033;BME280;31720;52.638;9.216;2023-09-19T03:03:51;100403.19;;;15.58;100.00
32033;BME280;31720;52.638;9.216;2023-09-19T03:06:53;100397.16;;;15.56;100.00
32033;BME280;31720;52.638;9.216;2023-09-19T03:09:59;100401.75;;;15.54;100.00
32033;BME280;31720;52.638;9.216;2023-09-19T03:13:00;100408.72;;;15.55;100.00
32033;BME280;31720;52.638;9.216;2023-09-19T03:16:02;100409.31;;;15.47;100.00
32033;BME280;31720;52.638;9.216;2023-09-19T03:19:07;100410.75;;;15.52;100.00
32033;BME280;31720;52.638;9.216;2023-09-19T03:22:10;100407.97;;;15.53;100.00
32033;BME280;31720;52.638;9.216;2023-09-19T03:25:12;100408.84;;;15.54;100.00
32033;BME280;31720;52.638;9.216;2023-09-19T03:28:14;100407.03;;;15.54;100.00
32033;BME280;31720;52.638;9.216;2023-09-19T03:31:16;100409.78;;;15.53;100.00
32033;BME280;31720;52.638;9.216;2023-09-19T03:34:19;100417.88;;;15.51;100.00
32033;BME280;31720;52.638;9.216;2023-09-19T03:37:20;100423.28;;;15.50;100.00
32033;BME280;31720;52.638;9.216;2023-09-19T03:40:22;100428.69;;;15.48;100.00
32033;BME280;31720;52.638;9.216;2023-09-19T03:43:25;100423.28;;;15.50;100.00
32033;BME280;31720;52.638;9.216;2023-09-19T03:46:27;100423.38;;;15.48;100.00
32033;BME280;31720;52.638;9.216;2023-09-19T03:49:29;100422.56;;;15.47;100.00
32033;BME280;31720;52.638;9.216;2023-09-19T03:52:31;100421.09;;;15.43;100.00
32033;BME280;31720;52.638;9.216;2023-09-19T03:55:33;100424.25;;;15.37;100.00
32033;BME280;31720;52.638;9.216;2023-09-19T03:58:35;100429.69;;;15.36;100.00
32033;BME280;31720;52.638;9.216;2023-09-19T04:01:39;100429.69;;;15.36;100.00
32033;BME280;31720;52.638;9.216;2023-09-19T04:04:42;100432.56;;;15.33;100.00
32033;BME280;31720;52.638;9.216;2023-09-19T04:07:44;100435.81;;;15.36;100.00
32033;BME280;31720;52.638;9.216;2023-09-19T04:10:45;100440.72;;;15.30;100.00
32033;BME280;31720;52.638;9.216;2023-09-19T04:13:47;100440.16;;;15.26;100.00
32033;BME280;31720;52.638;9.216;2023-09-19T04:16:49;100439.28;;;15.26;100.00
32033;BME280;31720;52.638;9.216;2023-09-19T04:19:51;100439.41;;;15.24;100.00
32033;BME280;31720;52.638;9.216;2023-09-19T04:22:53;100446.63;;;15.22;100.00
32033;BME280;31720;52.638;9.216;2023-09-19T04:25:55;100445.81;;;15.21;100.00
32033;BME280;31720;52.638;9.216;2023-09-19T04:28:57;100451.31;;;15.18;100.00
32033;BME280;31720;52.638;9.216;2023-09-19T04:31:58;100458.06;;;15.22;100.00
32033;BME280;31720;52.638;9.216;2023-09-19T04:35:01;100459.84;;;15.11;100.00
32033;BME280;31720;52.638;9.216;2023-09-19T04:38:06;100463.22;;;15.13;100.00
32033;BME280;31720;52.638;9.216;2023-09-19T04:41:07;100459.72;;;15.12;100.00
32033;BME280;31720;52.638;9.216;2023-09-19T04:44:08;100448.19;;;15.13;100.00
32033;BME280;31720;52.638;9.216;2023-09-19T04:47:10;100448.53;;;15.09;100.00
32033;BME280;31720;52.638;9.216;2023-09-19T04:50:13;100450.72;;;15.04;100.00
32033;BME280;31720;52.638;9.216;2023-09-19T04:53:15;100445.88;;;14.97;100.00
32033;BME280;31720;52.638;9.216;2023-09-19T04:56:17;100462.94;;;14.93;100.00
32033;BME280;31720;52.638;9.216;2023-09-19T04:59:21;100457.19;;;15.00;100.00
32033;BME280;31720;52.638;9.216;2023-09-19T05:02:23;100470.44;;;15.11;100.00
32033;BME280;31720;52.638;9.216;2023-09-19T05:05:26;100478.94;;;15.03;100.00
32033;BME280;31720;52.638;9.216;2023-09-19T05:08:28;100468.97;;;15.07;100.00
32033;BME280;31720;52.638;9.216;2023-09-19T05:11:29;100473.50;;;14.93;100.00
32033;BME280;31720;52.638;9.216;2023-09-19T05:14:31;100487.72;;;14.92;100.00
32033;BME280;31720;52.638;9.216;2023-09-19T05:17:32;100485.41;;;14.88;100.00
32033;BME280;31720;52.638;9.216;2023-09-19T05:20:35;100484.09;;;14.93;100.00
32033;BME280;31720;52.638;9.216;2023-09-19T05:23:39;100479.56;;;14.95;100.00
32033;BME280;31720;52.638;9.216;2023-09-19T05:26:41;100497.81;;;14.87;100.00
32033;BME280;31720;52.638;9.216;2023-09-19T05:29:42;100514.38;;;14.89;100.00
32033;BME280;31720;52.638;9.216;2023-09-19T05:32:47;100520.28;;;14.82;100.00
32033;BME280;31720;52.638;9.216;2023-09-19T05:35:50;100519.88;;;14.75;100.00
32033;BME280;31720;52.638;9.216;2023-09-19T05:38:51;100528.16;;;14.70;100.00
32033;BME280;31720;52.638;9.216;2023-09-19T05:41:53;100529.00;;;14.71;100.00
32033;BME280;31720;52.638;9.216;2023-09-19T05:44:57;100541.00;;;14.64;100.00
32033;BME280;31720;52.638;9.216;2023-09-19T05:48:07;100542.22;;;14.71;100.00
32033;BME280;31720;52.638;9.216;2023-09-19T05:51:10;100542.34;;;14.69;100.00
32033;BME280;31720;52.638;9.216;2023-09-19T05:54:11;100549.31;;;14.70;100.00
32033;BME280;31720;52.638;9.216;2023-09-19T05:57:13;100541.72;;;14.66;100.00
32033;BME280;31720;52.638;9.216;2023-09-19T06:00:15;100538.22;;;14.65;100.00
32033;BME280;31720;52.638;9.216;2023-09-19T06:03:18;100534.97;;;14.62;100.00
32033;BME280;31720;52.638;9.216;2023-09-19T06:06:22;100533.28;;;14.61;100.00
32033;BME280;31720;52.638;9.216;2023-09-19T06:09:24;100528.84;;;14.61;100.00
32033;BME280;31720;52.638;9.216;2023-09-19T06:12:28;100536.22;;;14.69;100.00
32033;BME280;31720;52.638;9.216;2023-09-19T06:15:30;100543.31;;;14.68;100.00
32033;BME280;31720;52.638;9.216;2023-09-19T06:18:33;100533.22;;;14.74;100.00
32033;BME280;31720;52.638;9.216;2023-09-19T06:21:36;100537.69;;;14.73;100.00
32033;BME280;31720;52.638;9.216;2023-09-19T06:24:37;100537.00;;;14.82;100.00
32033;BME280;31720;52.638;9.216;2023-09-19T06:27:39;100550.00;;;14.85;100.00
32033;BME280;31720;52.638;9.216;2023-09-19T06:30:42;100555.09;;;15.00;100.00
32033;BME280;31720;52.638;9.216;2023-09-19T06:33:44;100552.81;;;15.06;100.00
32033;BME280;31720;52.638;9.216;2023-09-19T06:36:47;100557.66;;;15.12;100.00
32033;BME280;31720;52.638;9.216;2023-09-19T06:39:49;100559.38;;;15.13;100.00
32033;BME280;31720;52.638;9.216;2023-09-19T06:42:51;100562.50;;;15.18;100.00
32033;BME280;31720;52.638;9.216;2023-09-19T06:45:54;100556.47;;;15.16;100.00
32033;BME280;31720;52.638;9.216;2023-09-19T06:48:56;100561.88;;;15.15;100.00
32033;BME280;31720;52.638;9.216;2023-09-19T06:51:58;100572.19;;;15.07;100.00
32033;BME280;31720;52.638;9.216;2023-09-19T06:55:00;100563.41;;;15.06;100.00
32033;BME280;31720;52.638;9.216;2023-09-19T06:58:03;100559.47;;;15.12;100.00
32033;BME280;31720;52.638;9.216;2023-09-19T07:01:06;100571.16;;;15.20;100.00
32033;BME280;31720;52.638;9.216;2023-09-19T07:04:07;100554.63;;;15.06;100.00
32033;BME280;31720;52.638;9.216;2023-09-19T07:07:10;100559.72;;;15.09;100.00
32033;BME280;31720;52.638;9.216;2023-09-19T07:10:13;100571.22;;;15.08;100.00
32033;BME280;31720;52.638;9.216;2023-09-19T07:13:15;100577.00;;;15.02;100.00
32033;BME280;31720;52.638;9.216;2023-09-19T07:16:17;100581.44;;;15.01;100.00
32033;BME280;31720;52.638;9.216;2023-09-19T07:19:27;100586.88;;;15.00;100.00
32033;BME280;31720;52.638;9.216;2023-09-19T07:22:31;100605.13;;;15.03;100.00
32033;BME280;31720;52.638;9.216;2023-09-19T07:25:33;100605.03;;;15.04;100.00
32033;BME280;31720;52.638;9.216;2023-09-19T07:28:36;100614.09;;;15.13;100.00
32033;BME280;31720;52.638;9.216;2023-09-19T07:31:38;100620.63;;;15.20;100.00
32033;BME280;31720;52.638;9.216;2023-09-19T07:34:39;100609.81;;;15.23;100.00
32033;BME280;31720;52.638;9.216;2023-09-19T07:37:42;100616.66;;;15.26;100.00
32033;BME280;31720;52.638;9.216;2023-09-19T07:40:44;100605.47;;;15.22;100.00
32033;BME280;31720;52.638;9.216;2023-09-19T07:43:46;100598.03;;;15.27;100.00
32033;BME280;31720;52.638;9.216;2023-09-19T07:46:47;100611.00;;;15.30;100.00
32033;BME280;31720;52.638;9.216;2023-09-19T07:49:51;100603.06;;;15.30;100.00
32033;BME280;31720;52.638;9.216;2023-09-19T07:52:53;100602.00;;;15.33;100.00
32033;BME280;31720;52.638;9.216;2023-09-19T07:56:02;100606.38;;;15.45;100.00
32033;BME280;31720;52.638;9.216;2023-09-19T07:59:04;100615.53;;;15.52;100.00
32033;BME280;31720;52.638;9.216;2023-09-19T08:02:05;100601.44;;;15.52;100.00
32033;BME280;31720;52.638;9.216;2023-09-19T08:05:09;100611.91;;;15.53;100.00
32033;BME280;31720;52.638;9.216;2023-09-19T08:08:13;100608.09;;;15.57;100.00
32033;BME280;31720;52.638;9.216;2023-09-19T08:11:14;100609.88;;;15.57;100.00
32033;BME280;31720;52.638;9.216;2023-09-19T08:14:21;100612.03;;;15.52;100.00
32033;BME280;31720;52.638;9.216;2023-09-19T08:17:24;100615.31;;;15.55;100.00
32033;BME280;31720;52.638;9.216;2023-09-19T08:20:25;100619.16;;;15.62;100.00
32033;BME280;31720;52.638;9.216;2023-09-19T08:23:28;100609.22;;;15.66;100.00
32033;BME280;31720;52.638;9.216;2023-09-19T08:26:32;100615.13;;;15.69;100.00
32033;BME280;31720;52.638;9.216;2023-09-19T08:29:34;100624.19;;;15.67;100.00
32033;BME280;31720;52.638;9.216;2023-09-19T08:32:35;100610.81;;;15.80;100.00
32033;BME280;31720;52.638;9.216;2023-09-19T08:35:37;100609.88;;;15.81;100.00
32033;BME280;31720;52.638;9.216;2023-09-19T08:38:41;100626.34;;;15.73;100.00
32033;BME280;31720;52.638;9.216;2023-09-19T08:41:42;100633.94;;;15.78;100.00
32033;BME280;31720;52.638;9.216;2023-09-19T08:44:44;100634.66;;;15.80;100.00
32033;BME280;31720;52.638;9.216;2023-09-19T08:47:50;100629.00;;;15.84;100.00
32033;BME280;31720;52.638;9.216;2023-09-19T08:50:56;100632.47;;;15.85;100.00
32033;BME280;31720;52.638;9.216;2023-09-19T08:54:07;100634.06;;;15.87;100.00
32033;BME280;31720;52.638;9.216;2023-09-19T08:57:10;100630.84;;;15.95;100.00
32033;BME280;31720;52.638;9.216;2023-09-19T09:00:13;100627.56;;;16.03;100.00
32033;BME280;31720;52.638;9.216;2023-09-19T09:03:18;100638.16;;;16.03;100.00
32033;BME280;31720;52.638;9.216;2023-09-19T09:06:22;100634.78;;;16.12;100.00
32033;BME280;31720;52.638;9.216;2023-09-19T09:09:26;100643.25;;;16.17;100.00
32033;BME280;31720;52.638;9.216;2023-09-19T09:12:29;100642.53;;;16.15;100.00
32033;BME280;31720;52.638;9.216;2023-09-19T09:15:34;100642.53;;;16.15;100.00
32033;BME280;31720;52.638;9.216;2023-09-19T09:18:36;100626.63;;;16.15;100.00
32033;BME280;31720;52.638;9.216;2023-09-19T09:21:38;100642.38;;;16.16;100.00
32033;BME280;31720;52.638;9.216;2023-09-19T09:24:52;100645.56;;;16.21;100.00
32033;BME280;31720;52.638;9.216;2023-09-19T09:27:59;100639.75;;;16.28;100.00
32033;BME280;31720;52.638;9.216;2023-09-19T09:31:01;100639.75;;;16.28;100.00
32033;BME280;31720;52.638;9.216;2023-09-19T09:34:08;100631.19;;;16.35;100.00
32033;BME280;31720;52.638;9.216;2023-09-19T09:37:13;100633.72;;;16.37;100.00
32033;BME280;31720;52.638;9.216;2023-09-19T09:40:17;100626.47;;;16.39;100.00
32033;BME280;31720;52.638;9.216;2023-09-19T09:43:37;100634.53;;;16.48;100.00
32033;BME280;31720;52.638;9.216;2023-09-19T09:46:42;100643.00;;;16.54;100.00
32033;BME280;31720;52.638;9.216;2023-09-19T09:50:29;100647.06;;;16.58;100.00
32033;BME280;31720;52.638;9.216;2023-09-19T09:53:39;100655.75;;;16.60;100.00
32033;BME280;31720;52.638;9.216;2023-09-19T09:56:55;100643.19;;;16.62;100.00
32033;BME280;31720;52.638;9.216;2023-09-19T09:59:59;100657.91;;;16.66;100.00
32033;BME280;31720;52.638;9.216;2023-09-19T10:03:19;100646.34;;;16.56;100.00
32033;BME280;31720;52.638;9.216;2023-09-19T10:06:23;100637.19;;;16.60;100.00
32033;BME280;31720;52.638;9.216;2023-09-19T10:09:28;100642.72;;;16.68;100.00
32033;BME280;31720;52.638;9.216;2023-09-19T10:12:32;100636.09;;;16.73;100.00
32033;BME280;31720;52.638;9.216;2023-09-19T10:15:35;100642.94;;;16.87;100.00
32033;BME280;31720;52.638;9.216;2023-09-19T10:18:38;100644.84;;;16.96;100.00
32033;BME280;31720;52.638;9.216;2023-09-19T10:21:40;100646.53;;;16.97;100.00
32033;BME280;31720;52.638;9.216;2023-09-19T10:24:43;100679.97;;;17.00;100.00
32033;BME280;31720;52.638;9.216;2023-09-19T10:27:48;100657.63;;;17.03;100.00
32033;BME280;31720;52.638;9.216;2023-09-19T10:30:52;100658.34;;;17.05;100.00
32033;BME280;31720;52.638;9.216;2023-09-19T10:33:55;100653.25;;;17.13;100.00
32033;BME280;31720;52.638;9.216;2023-09-19T10:36:57;100655.31;;;17.09;100.00
32033;BME280;31720;52.638;9.216;2023-09-19T10:39:59;100646.97;;;17.14;100.00
32033;BME280;31720;52.638;9.216;2023-09-19T10:43:03;100645.47;;;17.21;100.00
32033;BME280;31720;52.638;9.216;2023-09-19T10:46:07;100649.84;;;17.22;100.00
32033;BME280;31720;52.638;9.216;2023-09-19T10:49:11;100640.66;;;17.26;100.00
32033;BME280;31720;52.638;9.216;2023-09-19T10:52:12;100647.50;;;17.29;100.00
32033;BME280;31720;52.638;9.216;2023-09-19T10:55:19;100643.38;;;17.36;100.00
32033;BME280;31720;52.638;9.216;2023-09-19T10:58:28;100645.53;;;17.42;100.00
32033;BME280;31720;52.638;9.216;2023-09-19T11:01:41;100638.72;;;17.49;100.00
32033;BME280;31720;52.638;9.216;2023-09-19T11:04:44;100642.69;;;17.55;100.00
32033;BME280;31720;52.638;9.216;2023-09-19T11:07:57;100649.16;;;17.62;100.00
32033;BME280;31720;52.638;9.216;2023-09-19T11:11:00;100635.34;;;17.68;100.00
32033;BME280;31720;52.638;9.216;2023-09-19T11:14:28;100633.16;;;17.73;100.00
32033;BME280;31720;52.638;9.216;2023-09-19T11:17:34;100638.72;;;17.49;100.00
32033;BME280;31720;52.638;9.216;2023-09-19T11:20:37;100633.94;;;17.64;100.00
32033;BME280;31720;52.638;9.216;2023-09-19T11:24:28;100641.34;;;17.81;100.00
32033;BME280;31720;52.638;9.216;2023-09-19T11:27:31;100635.75;;;17.84;100.00
32033;BME280;31720;52.638;9.216;2023-09-19T11:30:37;100637.72;;;17.82;100.00
32033;BME280;31720;52.638;9.216;2023-09-19T11:33:39;100641.78;;;17.86;100.00
32033;BME280;31720;52.638;9.216;2023-09-19T11:36:46;100639.13;;;17.86;100.00
32033;BME280;31720;52.638;9.216;2023-09-19T11:40:07;100641.78;;;17.86;100.00
32033;BME280;31720;52.638;9.216;2023-09-19T11:43:29;100635.53;;;17.97;100.00
32033;BME280;31720;52.638;9.216;2023-09-19T11:46:52;100638.66;;;18.02;100.00
32033;BME280;31720;52.638;9.216;2023-09-19T11:49:53;100643.53;;;17.97;100.00
32033;BME280;31720;52.638;9.216;2023-09-19T11:52:55;100629.69;;;18.03;100.00
32033;BME280;31720;52.638;9.216;2023-09-19T11:55:58;100633.72;;;17.97;100.00
32033;BME280;31720;52.638;9.216;2023-09-19T11:59:01;100627.91;;;18.04;100.00
32033;BME280;31720;52.638;9.216;2023-09-19T12:02:06;100629.31;;;18.08;100.00
32033;BME280;31720;52.638;9.216;2023-09-19T12:05:08;100626.94;;;18.14;100.00
32033;BME280;31720;52.638;9.216;2023-09-19T12:08:10;100623.84;;;18.09;100.00
32033;BME280;31720;52.638;9.216;2023-09-19T12:11:14;100619.16;;;18.22;100.00
32033;BME280;31720;52.638;9.216;2023-09-19T12:14:22;100624.91;;;18.28;100.00
32033;BME280;31720;52.638;9.216;2023-09-19T12:17:35;100628.13;;;18.21;100.00
32033;BME280;31720;52.638;9.216;2023-09-19T12:20:44;100621.31;;;18.48;100.00
32033;BME280;31720;52.638;9.216;2023-09-19T12:23:59;100625.34;;;18.73;100.00
32033;BME280;31720;52.638;9.216;2023-09-19T12:27:06;100630.53;;;18.84;100.00
32033;BME280;31720;52.638;9.216;2023-09-19T12:30:09;100622.44;;;18.86;100.00
32033;BME280;31720;52.638;9.216;2023-09-19T12:33:19;100617.94;;;18.86;100.00
32033;BME280;31720;52.638;9.216;2023-09-19T12:36:22;100614.97;;;18.80;100.00
32033;BME280;31720;52.638;9.216;2023-09-19T12:39:29;100613.88;;;18.72;100.00
32033;BME280;31720;52.638;9.216;2023-09-19T12:42:31;100613.16;;;18.80;100.00
32033;BME280;31720;52.638;9.216;2023-09-19T12:45:34;100608.69;;;19.10;100.00
32033;BME280;31720;52.638;9.216;2023-09-19T12:48:40;100600.53;;;19.50;100.00
32033;BME280;31720;52.638;9.216;2023-09-19T12:51:45;100604.75;;;19.33;100.00
32033;BME280;31720;52.638;9.216;2023-09-19T12:54:47;100605.59;;;19.53;100.00
32033;BME280;31720;52.638;9.216;2023-09-19T12:57:59;100600.56;;;19.40;100.00
32033;BME280;31720;52.638;9.216;2023-09-19T13:01:01;100596.47;;;19.46;100.00
32033;BME280;31720;52.638;9.216;2023-09-19T13:04:17;100595.22;;;19.50;100.00
32033;BME280;31720;52.638;9.216;2023-09-19T13:07:40;100593.22;;;19.52;100.00
32033;BME280;31720;52.638;9.216;2023-09-19T13:10:59;100580.19;;;19.49;100.00
32033;BME280;31720;52.638;9.216;2023-09-19T13:14:15;100586.09;;;19.33;100.00
32033;BME280;31720;52.638;9.216;2023-09-19T13:17:16;100580.09;;;19.31;100.00
32033;BME280;31720;52.638;9.216;2023-09-19T13:20:25;100577.22;;;19.52;100.00
32033;BME280;31720;52.638;9.216;2023-09-19T13:23:28;100586.50;;;19.38;100.00
32033;BME280;31720;52.638;9.216;2023-09-19T13:26:31;100586.69;;;19.27;100.00
32033;BME280;31720;52.638;9.216;2023-09-19T13:29:32;100569.66;;;19.67;100.00
32033;BME280;31720;52.638;9.216;2023-09-19T13:32:34;100575.13;;;20.02;100.00
32033;BME280;31720;52.638;9.216;2023-09-19T13:35:37;100570.22;;;20.63;100.00
32033;BME280;31720;52.638;9.216;2023-09-19T13:38:40;100578.44;;;21.05;100.00
32033;BME280;31720;52.638;9.216;2023-09-19T13:41:44;100566.94;;;21.05;100.00
32033;BME280;31720;52.638;9.216;2023-09-19T13:44:46;100568.84;;;20.94;100.00
32033;BME280;31720;52.638;9.216;2023-09-19T13:47:48;100566.75;;;21.24;100.00
32033;BME280;31720;52.638;9.216;2023-09-19T13:50:51;100558.81;;;21.32;100.00
32033;BME280;31720;52.638;9.216;2023-09-19T13:53:52;100560.56;;;21.23;100.00
32033;BME280;31720;52.638;9.216;2023-09-19T13:56:54;100561.97;;;21.10;100.00
32033;BME280;31720;52.638;9.216;2023-09-19T13:59:55;100567.50;;;21.34;100.00
32033;BME280;31720;52.638;9.216;2023-09-19T14:02:57;100549.50;;;21.36;100.00
32033;BME280;31720;52.638;9.216;2023-09-19T14:05:59;100554.84;;;21.18;100.00
32033;BME280;31720;52.638;9.216;2023-09-19T14:09:01;100544.53;;;21.41;100.00
32033;BME280;31720;52.638;9.216;2023-09-19T14:12:05;100548.31;;;21.39;100.00
32033;BME280;31720;52.638;9.216;2023-09-19T14:15:07;100551.53;;;21.24;100.00
32033;BME280;31720;52.638;9.216;2023-09-19T14:18:09;100547.41;;;20.86;100.00
32033;BME280;31720;52.638;9.216;2023-09-19T14:21:12;100550.66;;;20.98;100.00
32033;BME280;31720;52.638;9.216;2023-09-19T14:24:16;100555.88;;;20.99;100.00
32033;BME280;31720;52.638;9.216;2023-09-19T14:27:18;100567.03;;;21.21;100.00
32033;BME280;31720;52.638;9.216;2023-09-19T14:30:19;100559.59;;;21.07;100.00
32033;BME280;31720;52.638;9.216;2023-09-19T14:33:21;100548.47;;;20.58;100.00
32033;BME280;31720;52.638;9.216;2023-09-19T14:36:24;100549.44;;;20.29;100.00
32033;BME280;31720;52.638;9.216;2023-09-19T14:39:26;100542.84;;;20.06;100.00
32033;BME280;31720;52.638;9.216;2023-09-19T14:42:28;100545.84;;;19.93;100.00
32033;BME280;31720;52.638;9.216;2023-09-19T14:45:29;100560.56;;;19.97;100.00
32033;BME280;31720;52.638;9.216;2023-09-19T14:48:31;100537.22;;;20.09;100.00
32033;BME280;31720;52.638;9.216;2023-09-19T14:51:34;100556.47;;;20.02;100.00
32033;BME280;31720;52.638;9.216;2023-09-19T14:54:36;100552.56;;;19.97;100.00
32033;BME280;31720;52.638;9.216;2023-09-19T14:57:41;100545.16;;;19.91;100.00
32033;BME280;31720;52.638;9.216;2023-09-19T15:00:44;100532.38;;;19.85;100.00
32033;BME280;31720;52.638;9.216;2023-09-19T15:03:46;100542.72;;;19.97;100.00
32033;BME280;31720;52.638;9.216;2023-09-19T15:06:50;100532.50;;;19.93;100.00
32033;BME280;31720;52.638;9.216;2023-09-19T15:09:54;100527.31;;;19.91;100.00
32033;BME280;31720;52.638;9.216;2023-09-19T15:12:56;100522.81;;;19.92;100.00
32033;BME280;31720;52.638;9.216;2023-09-19T15:15:59;100542.22;;;19.84;100.00
32033;BME280;31720;52.638;9.216;2023-09-19T15:19:00;100535.94;;;19.75;100.00
32033;BME280;31720;52.638;9.216;2023-09-19T15:22:04;100537.25;;;19.62;100.00
32033;BME280;31720;52.638;9.216;2023-09-19T15:25:06;100551.13;;;19.56;100.00
32033;BME280;31720;52.638;9.216;2023-09-19T15:28:07;100525.88;;;19.60;100.00
32033;BME280;31720;52.638;9.216;2023-09-19T15:31:11;100544.97;;;19.55;100.00
32033;BME280;31720;52.638;9.216;2023-09-19T15:34:13;100544.84;;;19.47;100.00
32033;BME280;31720;52.638;9.216;2023-09-19T15:37:17;100549.06;;;19.49;100.00
32033;BME280;31720;52.638;9.216;2023-09-19T15:40:19;100539.78;;;19.44;100.00
32033;BME280;31720;52.638;9.216;2023-09-19T15:43:23;100543.75;;;19.40;100.00
32033;BME280;31720;52.638;9.216;2023-09-19T15:46:25;100547.81;;;19.34;100.00
32033;BME280;31720;52.638;9.216;2023-09-19T15:49:27;100552.28;;;19.53;100.00
32033;BME280;31720;52.638;9.216;2023-09-19T15:52:30;100548.34;;;19.47;100.00